| time (UTC) | temp F | wind direction | speed knots | gust knots | rain 1hr in | rain 24hr in | rain mn in | humidity % | barometer mb |
| 20260506180111 | 54 | 195 | 27.8 | 27.8 | 0.00 | 1.25 | 1.08 | 85 | 1005.6 |
| 20260506174611 | 55 | 195 | 27.8 | 27.8 | 0.00 | 1.25 | 1.08 | 85 | 1005.5 |
| 20260506173110 | 55 | 195 | 27.8 | 27.8 | 0.00 | 1.25 | 1.08 | 85 | 1005.5 |
| 20260506171611 | 55 | 195 | 27.8 | 27.8 | 0.00 | 1.25 | 1.08 | 85 | 1004.5 |
| 20260506170111 | 56 | 195 | 27.8 | 27.8 | 0.00 | 1.25 | 1.08 | 84 | 1004.4 |
| 20260506164611 | 58 | 195 | 27.8 | 27.8 | 0.00 | 1.25 | 1.08 | 83 | 1004.3 |
| 20260506163111 | 58 | 195 | 27.8 | 27.8 | 0.00 | 1.25 | 1.08 | 82 | 1004.3 |
| 20260506161611 | 60 | 195 | 27.8 | 27.8 | 0.00 | 1.25 | 1.08 | 79 | 1004.2 |
| 20260506160111 | 61 | 195 | 27.8 | 27.8 | 0.00 | 1.25 | 1.08 | 79 | 1004.2 |
| 20260506154611 | 61 | 195 | 27.8 | 27.8 | 0.00 | 1.25 | 1.08 | 79 | 1004.2 |
| 20260506153111 | 61 | 195 | 27.8 | 27.8 | 0.00 | 1.25 | 1.08 | 79 | 1004.2 |
| 20260506151610 | 63 | 195 | 27.8 | 27.8 | 0.00 | 1.25 | 1.08 | 75 | 1004.1 |
| 20260506150111 | 63 | 195 | 27.8 | 27.8 | 0.00 | 1.25 | 1.08 | 75 | 1004.1 |
| 20260506144611 | 63 | 195 | 27.8 | 27.8 | 0.00 | 1.25 | 1.08 | 75 | 1004.1 |
| 20260506143110 | 63 | 195 | 27.8 | 27.8 | 0.00 | 1.25 | 1.08 | 74 | 1004.0 |
| 20260506141611 | 62 | 195 | 27.8 | 27.8 | 0.00 | 1.25 | 1.08 | 77 | 1004.1 |
| 20260506140110 | 62 | 195 | 27.8 | 27.8 | 0.00 | 1.26 | 1.08 | 76 | 1004.1 |
| 20260506134611 | 57 | 195 | 27.8 | 27.8 | 0.00 | 1.26 | 1.08 | 84 | 1004.4 |
| 20260506133111 | 57 | 195 | 27.8 | 27.8 | 0.00 | 1.26 | 1.08 | 84 | 1004.4 |
| 20260506131611 | 57 | 195 | 27.8 | 27.8 | 0.12 | 1.26 | 1.08 | 84 | 1004.4 |
| 20260506130111 | 56 | 195 | 27.8 | 27.8 | 0.31 | 1.26 | 1.08 | 84 | 1004.4 |
| 20260506124611 | 56 | 195 | 27.8 | 27.8 | 0.33 | 1.25 | 1.07 | 84 | 1004.4 |
| 20260506123111 | 55 | 195 | 27.8 | 27.8 | 0.30 | 1.21 | 1.04 | 85 | 1004.5 |
| 20260506121610 | 55 | 195 | 27.8 | 27.8 | 0.22 | 1.13 | 0.96 | 85 | 1004.5 |
| 20260506120110 | 56 | 195 | 27.8 | 27.8 | 0.03 | 0.94 | 0.77 | 84 | 1004.4 |
| 20260506114610 | 58 | 195 | 27.8 | 27.8 | 0.00 | 0.92 | 0.74 | 80 | 1004.3 |
| 20260506113111 | 58 | 195 | 27.8 | 27.8 | 0.00 | 0.91 | 0.74 | 80 | 1004.3 |
| 20260506111610 | 57 | 195 | 27.8 | 27.8 | 0.00 | 0.91 | 0.74 | 82 | 1004.4 |
| 20260506110110 | 57 | 195 | 27.8 | 27.8 | 0.00 | 0.91 | 0.74 | 82 | 1004.4 |
| 20260506104611 | 57 | 195 | 27.8 | 27.8 | 0.00 | 0.91 | 0.74 | 82 | 1004.4 |
| 20260506103110 | 57 | 195 | 27.8 | 27.8 | 0.00 | 0.91 | 0.74 | 82 | 1004.4 |
| 20260506101611 | 57 | 195 | 27.8 | 27.8 | 0.00 | 0.91 | 0.74 | 81 | 1004.4 |
| 20260506100110 | 58 | 195 | 27.8 | 27.8 | 0.00 | 0.91 | 0.74 | 82 | 1004.3 |
| 20260506094610 | 59 | 195 | 27.8 | 27.8 | 0.00 | 0.91 | 0.74 | 84 | 1004.3 |
| 20260506093110 | 57 | 195 | 27.8 | 27.8 | 0.01 | 0.91 | 0.74 | 85 | 1004.4 |
| 20260506091611 | 56 | 195 | 27.8 | 27.8 | 0.01 | 0.91 | 0.73 | 84 | 1004.5 |
| 20260506090111 | 56 | 195 | 27.8 | 27.8 | 0.02 | 0.91 | 0.73 | 84 | 1004.5 |
| 20260506084610 | 55 | 195 | 27.8 | 27.8 | 0.02 | 0.91 | 0.73 | 84 | 1004.5 |
| 20260506083111 | 53 | 195 | 27.8 | 27.8 | 0.02 | 0.91 | 0.73 | 84 | 1004.6 |
| 20260506081610 | 53 | 195 | 27.8 | 27.8 | 0.01 | 0.90 | 0.72 | 84 | 1004.6 |
| 20260506080110 | 53 | 195 | 27.8 | 27.8 | 0.01 | 0.89 | 0.71 | 84 | 1004.6 |
| 20260506073111 | 53 | 195 | 27.8 | 27.8 | 0.02 | 0.89 | 0.71 | 84 | 1004.6 |
| 20260506071610 | 52 | 195 | 27.8 | 27.8 | 0.03 | 0.88 | 0.71 | 84 | 1004.6 |
| 20260506070111 | 52 | 195 | 27.8 | 27.8 | 0.02 | 0.88 | 0.70 | 84 | 1004.7 |
| 20260506061610 | 52 | 195 | 27.8 | 27.8 | 0.00 | 0.86 | 0.68 | 84 | 1004.7 |
| 20260506060111 | 51 | 195 | 27.8 | 27.8 | 0.00 | 0.86 | 0.68 | 84 | 1003.7 |
| 20260506050111 | 51 | 195 | 27.8 | 27.8 | 0.01 | 0.86 | 0.68 | 84 | 1004.7 |
| 20260506044611 | 51 | 195 | 27.8 | 27.8 | 0.03 | 0.86 | 0.68 | 84 | 1004.7 |
| 20260506043111 | 51 | 195 | 27.8 | 27.8 | 0.04 | 0.86 | 0.68 | 84 | 1004.7 |
| 20260506041611 | 51 | 195 | 27.8 | 27.8 | 0.07 | 0.86 | 0.67 | 84 | 1003.7 |
| 20260506040111 | 51 | 195 | 27.8 | 27.8 | 0.09 | 0.87 | 0.67 | 84 | 1003.7 |
| 20260506034611 | 51 | 195 | 27.8 | 27.8 | 0.10 | 0.85 | 0.65 | 84 | 1004.7 |
| 20260506033111 | 52 | 195 | 27.8 | 27.8 | 0.11 | 0.84 | 0.63 | 84 | 1004.7 |
| 20260506031611 | 52 | 195 | 27.8 | 27.8 | 0.10 | 0.81 | 0.60 | 84 | 1004.7 |
| 20260506030111 | 51 | 195 | 27.8 | 27.8 | 0.11 | 0.78 | 0.58 | 84 | 1004.7 |
| 20260506024611 | 52 | 195 | 27.8 | 27.8 | 0.13 | 0.76 | 0.55 | 83 | 1004.7 |
| 20260506023111 | 52 | 195 | 27.8 | 27.8 | 0.13 | 0.72 | 0.52 | 83 | 1004.7 |
| 20260506021611 | 52 | 195 | 27.8 | 27.8 | 0.16 | 0.70 | 0.50 | 83 | 1004.7 |
| 20260506020111 | 52 | 195 | 27.8 | 27.8 | 0.14 | 0.67 | 0.46 | 83 | 1004.7 |
| 20260506014611 | 51 | 195 | 27.8 | 27.8 | 0.13 | 0.62 | 0.42 | 83 | 1004.7 |
| 20260506013111 | 52 | 195 | 27.8 | 27.8 | 0.13 | 0.59 | 0.39 | 83 | 1004.7 |
| 20260506011611 | 51 | 195 | 27.8 | 27.8 | 0.10 | 0.54 | 0.34 | 83 | 1005.7 |
| 20260506010111 | 52 | 195 | 27.8 | 27.8 | 0.11 | 0.52 | 0.32 | 83 | 1005.7 |
| 20260506004611 | 52 | 195 | 27.8 | 27.8 | 0.13 | 0.50 | 0.29 | 83 | 1005.7 |
| 20260506003111 | 52 | 195 | 27.8 | 27.8 | 0.15 | 0.46 | 0.26 | 83 | 1005.7 |
| 20260506001611 | 52 | 195 | 27.8 | 27.8 | 0.16 | 0.44 | 0.23 | 83 | 1005.7 |
| 20260506000111 | 53 | 195 | 27.8 | 27.8 | 0.15 | 0.42 | 0.21 | 83 | 1005.7 |
| 20260505234611 | 53 | 195 | 27.8 | 27.8 | 0.12 | 0.37 | 0.16 | 83 | 1005.6 |
| 20260505233111 | 53 | 195 | 27.8 | 27.8 | 0.08 | 0.32 | 0.11 | 83 | 1005.6 |
| 20260505231611 | 53 | 195 | 27.8 | 27.8 | 0.06 | 0.29 | 0.08 | 83 | 1005.6 |
| 20260505230111 | 54 | 195 | 27.8 | 27.8 | 0.06 | 0.27 | 0.06 | 83 | 1005.6 |
| 20260505224611 | 54 | 195 | 27.8 | 27.8 | 0.06 | 0.25 | 0.04 | 83 | 1005.6 |
| 20260505223111 | 54 | 195 | 27.8 | 27.8 | 0.07 | 0.24 | 0.03 | 83 | 1005.6 |
| 20260505221611 | 54 | 195 | 27.8 | 27.8 | 0.08 | 0.23 | 0.02 | 83 | 1005.6 |
| 20260505220111 | 54 | 195 | 27.8 | 27.8 | 0.08 | 0.22 | 0.22 | 83 | 1006.6 |
| 20260505214611 | 54 | 195 | 27.8 | 27.8 | 0.07 | 0.19 | 0.19 | 83 | 1006.6 |
| 20260505213111 | 54 | 195 | 27.8 | 27.8 | 0.06 | 0.18 | 0.18 | 83 | 1006.6 |
| 20260505211611 | 54 | 195 | 27.8 | 27.8 | 0.06 | 0.16 | 0.16 | 83 | 1006.6 |
| 20260505210111 | 54 | 195 | 27.8 | 27.8 | 0.04 | 0.13 | 0.13 | 84 | 1006.6 |
| 20260505204611 | 55 | 195 | 27.8 | 27.8 | 0.03 | 0.13 | 0.13 | 84 | 1006.5 |
| 20260505203111 | 55 | 195 | 27.8 | 27.8 | 0.03 | 0.11 | 0.11 | 84 | 1006.5 |
| 20260505201611 | 55 | 195 | 27.8 | 27.8 | 0.02 | 0.10 | 0.10 | 84 | 1006.5 |
| 20260505200111 | 55 | 195 | 27.8 | 27.8 | 0.03 | 0.10 | 0.10 | 84 | 1006.5 |
| 20260505194611 | 55 | 195 | 27.8 | 27.8 | 0.04 | 0.10 | 0.10 | 84 | 1006.5 |
| 20260505193111 | 55 | 195 | 27.8 | 27.8 | 0.04 | 0.10 | 0.09 | 84 | 1006.5 |
| 20260505191611 | 56 | 195 | 27.8 | 27.8 | 0.03 | 0.09 | 0.08 | 84 | 1006.5 |
| 20260505190111 | 56 | 195 | 27.8 | 27.8 | 0.02 | 0.17 | 0.07 | 83 | 1006.5 |
| 20260505184611 | 57 | 195 | 27.8 | 27.8 | 0.00 | 0.15 | 0.05 | 82 | 1006.4 |
| 20260505183111 | 58 | 195 | 27.8 | 27.8 | 0.00 | 0.15 | 0.05 | 81 | 1006.4 |
| 20260505181611 | 58 | 195 | 27.8 | 27.8 | 0.00 | 0.15 | 0.05 | 80 | 1006.4 |